createdAt,value
2023-05-14T00:00:59.168Z,21.33
2023-05-14T00:01:59.215Z,21.36
2023-05-14T00:02:59.366Z,21.38
2023-05-14T00:03:59.287Z,21.40
2023-05-14T00:04:59.128Z,21.40
2023-05-14T00:05:59.113Z,21.47
2023-05-14T00:06:59.082Z,21.49
2023-05-14T00:07:59.092Z,21.51
2023-05-14T00:08:59.059Z,21.56
2023-05-14T00:09:59.049Z,21.51
2023-05-14T00:10:59.052Z,21.51
2023-05-14T00:11:59.021Z,21.60
2023-05-14T00:12:59.021Z,21.62
2023-05-14T00:13:59.002Z,21.71
2023-05-14T00:14:58.987Z,21.71
2023-05-14T00:15:58.980Z,21.71
2023-05-14T00:16:58.962Z,21.76
2023-05-14T00:17:58.985Z,21.81
2023-05-14T00:18:59.021Z,21.78
2023-05-14T00:19:58.933Z,21.83
2023-05-14T00:20:58.930Z,21.85
2023-05-14T00:21:58.952Z,21.78
2023-05-14T00:22:58.898Z,21.83
2023-05-14T00:23:58.870Z,21.90
2023-05-14T00:24:58.864Z,21.85
2023-05-14T00:25:58.842Z,21.85
2023-05-14T00:26:58.825Z,21.90
2023-05-14T00:27:58.857Z,21.94
2023-05-14T00:28:58.820Z,22.06
2023-05-14T00:29:58.804Z,22.04
2023-05-14T00:30:58.781Z,22.13
2023-05-14T00:31:58.750Z,22.23
2023-05-14T00:32:58.805Z,22.18
2023-05-14T00:33:58.745Z,22.32
2023-05-14T00:34:58.716Z,22.32
2023-05-14T00:35:58.702Z,22.39
2023-05-14T00:36:58.687Z,22.37
2023-05-14T00:37:58.688Z,22.47
2023-05-14T00:38:58.695Z,22.61
2023-05-14T00:39:58.701Z,22.59
2023-05-14T00:40:58.644Z,22.59
2023-05-14T00:41:58.641Z,22.51
2023-05-14T00:42:58.628Z,22.51
2023-05-14T00:43:58.641Z,22.51
2023-05-14T00:44:58.621Z,22.54
2023-05-14T00:45:58.584Z,22.54
2023-05-14T00:46:58.679Z,22.54
2023-05-14T00:47:58.582Z,22.54
2023-05-14T00:48:58.540Z,22.44
2023-05-14T00:49:58.538Z,22.51
2023-05-14T00:50:58.529Z,22.49
2023-05-14T00:51:58.510Z,22.49
2023-05-14T00:52:58.500Z,22.47
2023-05-14T00:53:58.565Z,22.44
2023-05-14T00:54:58.495Z,22.49
2023-05-14T00:55:58.497Z,22.49
2023-05-14T00:56:58.422Z,22.42
2023-05-14T00:57:58.504Z,22.47
2023-05-14T00:58:58.551Z,22.44
2023-05-14T00:59:58.397Z,22.42
2023-05-14T01:00:58.449Z,22.44
2023-05-14T01:01:58.388Z,22.47
2023-05-14T01:02:58.420Z,22.47
2023-05-14T01:03:58.452Z,22.54
2023-05-14T01:04:58.347Z,22.51
2023-05-14T01:05:58.341Z,22.61
2023-05-14T01:06:58.306Z,22.66
2023-05-14T01:07:58.297Z,22.69
2023-05-14T01:08:58.305Z,22.66
2023-05-14T01:09:58.287Z,22.66
2023-05-14T01:10:58.236Z,22.69
2023-05-14T01:11:58.260Z,22.81
2023-05-14T01:12:58.263Z,22.89
2023-05-14T01:13:58.243Z,22.94
2023-05-14T01:14:58.246Z,22.96
2023-05-14T01:15:58.226Z,23.04
2023-05-14T01:16:58.378Z,23.04
2023-05-14T01:17:58.221Z,23.14
2023-05-14T01:18:58.175Z,23.19
2023-05-14T01:19:58.153Z,23.17
2023-05-14T01:20:58.141Z,23.32
2023-05-14T01:21:58.105Z,23.27
2023-05-14T01:22:58.101Z,23.38
2023-05-14T01:23:58.138Z,23.40
2023-05-14T01:24:58.045Z,23.40
2023-05-14T01:25:58.068Z,23.48
2023-05-14T01:26:58.043Z,23.59
2023-05-14T01:27:58.055Z,23.64
2023-05-14T01:28:58.001Z,23.72
2023-05-14T01:29:57.992Z,23.73
2023-05-14T01:30:58.017Z,23.73
2023-05-14T01:31:57.989Z,23.72
2023-05-14T01:32:58.012Z,23.64
2023-05-14T01:33:57.951Z,23.64
2023-05-14T01:34:57.924Z,23.64
2023-05-14T01:35:57.915Z,23.56
2023-05-14T01:36:57.953Z,23.56
2023-05-14T01:37:57.915Z,23.53
2023-05-14T01:38:57.928Z,23.59
2023-05-14T01:39:57.862Z,23.53
2023-05-14T01:40:57.856Z,23.53
2023-05-14T01:41:57.833Z,23.67
2023-05-14T01:42:57.884Z,23.69
2023-05-14T01:43:57.809Z,23.73
2023-05-14T01:44:57.808Z,23.79
2023-05-14T01:45:57.846Z,23.88
2023-05-14T01:46:57.783Z,24.01
2023-05-14T01:47:57.792Z,24.08
2023-05-14T01:48:57.726Z,24.05
2023-05-14T01:49:57.748Z,24.03
2023-05-14T01:50:57.714Z,23.97
2023-05-14T01:51:57.711Z,24.05
2023-05-14T01:52:57.700Z,24.03
2023-05-14T01:53:57.682Z,23.88
2023-05-14T01:54:57.662Z,23.83
2023-05-14T01:55:57.642Z,23.81
2023-05-14T01:56:57.650Z,23.69
2023-05-14T01:57:57.639Z,23.67
2023-05-14T01:58:57.609Z,23.59
2023-05-14T01:59:57.612Z,23.56
2023-05-14T02:00:57.597Z,23.48
2023-05-14T02:01:57.626Z,23.53
2023-05-14T02:02:57.652Z,23.59
2023-05-14T02:03:57.604Z,23.67
2023-05-14T02:04:57.574Z,23.85
2023-05-14T02:05:57.520Z,23.92
2023-05-14T02:06:57.495Z,24.01
2023-05-14T02:07:57.514Z,24.19
2023-05-14T02:08:57.493Z,24.39
2023-05-14T02:09:57.467Z,24.76
2023-05-14T02:10:57.455Z,24.93
2023-05-14T02:11:57.419Z,25.29
2023-05-14T02:12:57.420Z,25.60
2023-05-14T02:13:57.390Z,25.76
2023-05-14T02:14:57.409Z,25.86
2023-05-14T02:15:57.409Z,26.00
2023-05-14T02:16:57.383Z,26.22
2023-05-14T02:17:57.390Z,26.32
2023-05-14T02:18:57.430Z,26.55
2023-05-14T02:19:57.333Z,26.74
2023-05-14T02:20:57.310Z,26.93
2023-05-14T02:21:57.307Z,27.17
2023-05-14T02:22:57.282Z,27.21
2023-05-14T02:23:57.294Z,27.35
2023-05-14T02:24:57.320Z,27.46
2023-05-14T02:25:57.247Z,27.46
2023-05-14T02:26:57.224Z,27.64
2023-05-14T02:27:57.218Z,27.88
2023-05-14T02:28:57.215Z,27.94
2023-05-14T02:29:57.190Z,28.07
2023-05-14T02:30:57.196Z,28.02
2023-05-14T02:31:57.459Z,28.17
2023-05-14T02:32:57.180Z,28.48
2023-05-14T02:33:57.147Z,28.91
2023-05-14T02:34:57.133Z,29.36
2023-05-14T02:35:57.107Z,29.28
2023-05-14T02:36:57.101Z,29.30
2023-05-14T02:37:57.093Z,29.05
2023-05-14T02:38:57.071Z,28.91
2023-05-14T02:39:57.072Z,28.69
2023-05-14T02:40:57.058Z,28.57
2023-05-14T02:41:57.042Z,28.63
2023-05-14T02:42:57.040Z,28.57
2023-05-14T02:43:57.006Z,28.40
2023-05-14T02:44:57.000Z,28.32
2023-05-14T02:45:56.977Z,28.09
2023-05-14T02:46:57.016Z,27.87
2023-05-14T02:47:56.997Z,27.41
2023-05-14T02:48:56.958Z,27.23
2023-05-14T02:49:56.935Z,26.91
2023-05-14T02:50:56.907Z,26.45
2023-05-14T02:51:56.910Z,26.26
2023-05-14T02:52:56.888Z,25.86
2023-05-14T02:53:56.902Z,25.68
2023-05-14T02:54:56.872Z,25.57
2023-05-14T02:55:56.857Z,25.46
2023-05-14T02:56:56.827Z,25.43
2023-05-14T02:57:56.878Z,25.44
2023-05-14T02:58:56.812Z,25.70
2023-05-14T02:59:56.805Z,25.99
2023-05-14T03:00:56.849Z,26.22
2023-05-14T03:01:56.788Z,26.30
2023-05-14T03:02:56.802Z,26.20
2023-05-14T03:03:56.752Z,26.20
2023-05-14T03:04:56.725Z,25.94
2023-05-14T03:05:56.711Z,25.91
2023-05-14T03:06:56.694Z,25.49
2023-05-14T03:07:56.680Z,25.44
2023-05-14T03:08:56.688Z,25.44
2023-05-14T03:09:56.667Z,25.37
2023-05-14T03:10:56.653Z,25.40
2023-05-14T03:11:56.631Z,25.44
2023-05-14T03:12:56.672Z,25.29
2023-05-14T03:13:56.616Z,25.37
2023-05-14T03:14:56.620Z,25.26
2023-05-14T03:15:56.601Z,25.35
2023-05-14T03:16:56.623Z,25.32
2023-05-14T03:17:56.582Z,25.25
2023-05-14T03:18:56.599Z,25.00
2023-05-14T03:19:56.532Z,25.14
2023-05-14T03:20:56.534Z,25.21
2023-05-14T03:21:56.521Z,25.15
2023-05-14T03:22:56.491Z,25.14
2023-05-14T03:23:56.471Z,25.09
2023-05-14T03:24:56.457Z,24.96
2023-05-14T03:25:56.437Z,24.94
2023-05-14T03:26:56.435Z,24.72
2023-05-14T03:27:56.427Z,24.81
2023-05-14T03:28:56.404Z,24.78
2023-05-14T03:29:56.386Z,24.76
2023-05-14T03:30:56.390Z,24.75
2023-05-14T03:31:56.378Z,24.66
2023-05-14T03:32:56.374Z,24.69
2023-05-14T03:33:56.324Z,24.63
2023-05-14T03:34:56.319Z,24.50
2023-05-14T03:35:56.315Z,24.47
2023-05-14T03:36:56.318Z,24.44
2023-05-14T03:37:56.274Z,24.40
2023-05-14T03:38:56.270Z,24.33
2023-05-14T03:39:56.248Z,24.44
2023-05-14T03:40:56.272Z,24.57
2023-05-14T03:41:56.246Z,24.63
2023-05-14T03:42:56.227Z,24.81
2023-05-14T03:43:56.196Z,24.65
2023-05-14T03:44:56.189Z,24.81
2023-05-14T03:45:56.173Z,24.82
2023-05-14T03:46:56.182Z,24.66
2023-05-14T03:47:56.260Z,24.65
2023-05-14T03:48:56.221Z,24.59
2023-05-14T03:49:56.126Z,24.47
2023-05-14T03:50:56.131Z,24.43
2023-05-14T03:51:56.114Z,24.49
2023-05-14T03:52:56.078Z,24.49
2023-05-14T03:53:56.080Z,24.29
2023-05-14T03:54:56.075Z,24.44
2023-05-14T03:55:56.058Z,24.49
2023-05-14T03:56:56.031Z,24.49
2023-05-14T03:57:56.020Z,24.59
2023-05-14T03:58:56.004Z,24.62
2023-05-14T03:59:56.015Z,24.70
2023-05-14T04:00:55.992Z,24.72
2023-05-14T04:01:55.981Z,24.43
2023-05-14T04:02:56.020Z,24.55
2023-05-14T04:03:56.036Z,24.72
2023-05-14T04:04:56.040Z,24.62
2023-05-14T04:05:55.938Z,24.73
2023-05-14T04:06:55.964Z,24.69
2023-05-14T04:07:55.891Z,24.79
2023-05-14T04:08:55.871Z,24.85
2023-05-14T04:09:55.859Z,24.75
2023-05-14T04:10:55.865Z,24.69
2023-05-14T04:11:55.842Z,24.85
2023-05-14T04:12:55.874Z,24.68
2023-05-14T04:13:55.819Z,24.78
2023-05-14T04:14:55.792Z,24.72
2023-05-14T04:15:55.814Z,24.79
2023-05-14T04:16:55.779Z,24.87
2023-05-14T04:17:55.798Z,24.87
2023-05-14T04:18:55.801Z,25.08
2023-05-14T04:19:55.733Z,24.94
2023-05-14T04:20:55.740Z,25.08
2023-05-14T04:21:55.714Z,25.34
2023-05-14T04:22:55.718Z,25.48
2023-05-14T04:23:55.718Z,25.65
2023-05-14T04:24:55.688Z,25.60
2023-05-14T04:25:55.687Z,25.56
2023-05-14T04:26:55.640Z,25.46
2023-05-14T04:27:55.628Z,25.37
2023-05-14T04:28:55.641Z,25.40
2023-05-14T04:29:55.594Z,25.40
2023-05-14T04:30:55.616Z,25.38
2023-05-14T04:31:55.696Z,25.56
2023-05-14T04:32:55.656Z,25.54
2023-05-14T04:33:55.568Z,25.73
2023-05-14T04:34:55.540Z,25.71
2023-05-14T04:35:55.522Z,25.62
2023-05-14T04:36:55.512Z,25.48
2023-05-14T04:37:55.499Z,25.38
2023-05-14T04:38:55.476Z,25.46
2023-05-14T04:39:55.487Z,25.63
2023-05-14T04:40:55.472Z,25.67
2023-05-14T04:41:55.456Z,25.68
2023-05-14T04:42:55.431Z,25.60
2023-05-14T04:43:55.427Z,25.67
2023-05-14T04:44:55.394Z,25.75
2023-05-14T04:45:55.436Z,25.73
2023-05-14T04:46:55.397Z,25.67
2023-05-14T04:47:55.435Z,25.59
2023-05-14T04:48:55.348Z,25.35
2023-05-14T04:49:55.336Z,25.38
2023-05-14T04:50:55.361Z,25.40
2023-05-14T04:51:55.326Z,25.51
2023-05-14T04:52:55.327Z,25.43
2023-05-14T04:53:55.345Z,25.67
2023-05-14T04:54:55.299Z,25.70
2023-05-14T04:55:55.263Z,25.89
2023-05-14T04:56:55.324Z,26.05
2023-05-14T04:57:55.224Z,26.10
2023-05-14T04:58:55.233Z,26.18
2023-05-14T04:59:55.239Z,26.23
2023-05-14T05:00:55.256Z,26.36
2023-05-14T05:01:55.192Z,26.12
2023-05-14T05:02:55.249Z,26.18
2023-05-14T05:03:55.227Z,26.12
2023-05-14T05:04:55.159Z,26.22
2023-05-14T05:05:55.131Z,26.22
2023-05-14T05:06:55.173Z,26.22
2023-05-14T05:07:55.091Z,26.30
2023-05-14T05:08:55.100Z,26.32
2023-05-14T05:09:55.072Z,26.18
2023-05-14T05:10:55.112Z,26.30
2023-05-14T05:11:55.075Z,26.33
2023-05-14T05:12:55.040Z,26.25
2023-05-14T05:13:55.023Z,26.18
2023-05-14T05:14:55.044Z,26.10
2023-05-14T05:15:55.079Z,26.10
2023-05-14T05:16:54.986Z,26.13
2023-05-14T05:17:55.007Z,26.15
2023-05-14T05:18:55.020Z,26.17
2023-05-14T05:19:54.946Z,26.20
2023-05-14T05:20:54.943Z,26.32
2023-05-14T05:21:54.919Z,26.17
2023-05-14T05:22:54.904Z,26.13
2023-05-14T05:23:54.894Z,26.03
2023-05-14T05:24:54.915Z,25.86
2023-05-14T05:25:54.864Z,25.94
2023-05-14T05:26:54.864Z,25.67
2023-05-14T05:27:54.851Z,25.71
2023-05-14T05:28:54.823Z,25.59
2023-05-14T05:29:54.828Z,25.52
2023-05-14T05:30:54.851Z,25.48
2023-05-14T05:31:54.886Z,25.51
2023-05-14T05:32:54.811Z,25.67
2023-05-14T05:33:54.751Z,25.49
2023-05-14T05:34:54.758Z,25.48
2023-05-14T05:35:54.757Z,25.60
2023-05-14T05:36:54.734Z,25.57
2023-05-14T05:37:54.715Z,25.49
2023-05-14T05:38:54.699Z,25.44
2023-05-14T05:39:54.678Z,25.32
2023-05-14T05:40:54.653Z,25.31
2023-05-14T05:41:54.641Z,25.23
2023-05-14T05:42:54.636Z,25.23
2023-05-14T05:43:54.636Z,25.37
2023-05-14T05:44:54.616Z,25.37
2023-05-14T05:45:54.588Z,25.41
2023-05-14T05:46:54.710Z,25.43
2023-05-14T05:47:54.581Z,25.46
2023-05-14T05:48:54.564Z,25.57
2023-05-14T05:49:54.523Z,25.35
2023-05-14T05:50:54.543Z,25.37
2023-05-14T05:51:54.492Z,25.46
2023-05-14T05:52:54.507Z,25.40
2023-05-14T05:53:54.511Z,25.23
2023-05-14T05:54:54.462Z,25.25
2023-05-14T05:55:54.467Z,25.29
2023-05-14T05:56:54.482Z,25.29
2023-05-14T05:57:54.449Z,25.21
2023-05-14T05:58:54.447Z,25.18
2023-05-14T05:59:54.434Z,25.29
2023-05-14T06:00:54.424Z,25.27
2023-05-14T06:01:54.434Z,25.11
2023-05-14T06:02:54.399Z,25.15
2023-05-14T06:03:54.387Z,25.25
2023-05-14T06:04:54.376Z,25.02
2023-05-14T06:05:54.416Z,25.12
2023-05-14T06:06:54.310Z,24.91
2023-05-14T06:07:54.319Z,24.88
2023-05-14T06:08:54.291Z,24.76
2023-05-14T06:09:54.288Z,24.82
2023-05-14T06:10:54.273Z,24.79
2023-05-14T06:11:54.248Z,24.63
2023-05-14T06:12:54.262Z,24.72
2023-05-14T06:13:54.227Z,24.70
2023-05-14T06:14:54.200Z,24.66
2023-05-14T06:15:54.165Z,24.76
2023-05-14T06:16:54.256Z,24.93
2023-05-14T06:17:54.244Z,24.90
2023-05-14T06:18:54.284Z,25.00
2023-05-14T06:19:54.125Z,25.09
2023-05-14T06:20:54.232Z,25.05
2023-05-14T06:21:54.119Z,24.97
2023-05-14T06:22:54.179Z,24.99
2023-05-14T06:23:54.075Z,24.88
2023-05-14T06:24:54.074Z,24.88
2023-05-14T06:25:54.062Z,24.82
2023-05-14T06:26:54.079Z,24.85
2023-05-14T06:27:54.049Z,25.05
2023-05-14T06:28:54.018Z,25.27
2023-05-14T06:29:54.034Z,25.52
2023-05-14T06:30:54.122Z,25.73
2023-05-14T06:31:54.087Z,25.94
2023-05-14T06:32:54.057Z,26.10
2023-05-14T06:33:54.042Z,26.23
2023-05-14T06:34:53.946Z,26.30
2023-05-14T06:35:53.944Z,26.22
2023-05-14T06:36:53.921Z,26.26
2023-05-14T06:37:53.929Z,26.45
2023-05-14T06:38:53.886Z,26.64
2023-05-14T06:39:54.735Z,26.69
2023-05-14T06:40:53.858Z,26.74
2023-05-14T06:41:53.850Z,26.84
2023-05-14T06:42:53.869Z,26.79
2023-05-14T06:43:53.832Z,26.89
2023-05-14T06:44:53.804Z,26.88
2023-05-14T06:45:53.804Z,26.96
2023-05-14T06:46:53.801Z,26.89
2023-05-14T06:47:53.886Z,26.77
2023-05-14T06:48:53.814Z,26.81
2023-05-14T06:49:53.756Z,26.91
2023-05-14T06:50:53.745Z,27.01
2023-05-14T06:51:53.701Z,26.89
2023-05-14T06:52:53.697Z,26.88
2023-05-14T06:53:53.753Z,26.93
2023-05-14T06:54:53.662Z,26.93
2023-05-14T06:55:53.670Z,26.96
2023-05-14T06:56:53.638Z,27.03
2023-05-14T06:57:53.638Z,27.51
2023-05-14T06:58:53.655Z,27.70
2023-05-14T06:59:53.622Z,28.09
2023-05-14T07:00:53.653Z,28.24
2023-05-14T07:01:53.626Z,28.57
2023-05-14T07:02:53.699Z,28.81
2023-05-14T07:03:53.606Z,28.95
2023-05-14T07:04:53.558Z,29.13
2023-05-14T07:05:53.524Z,29.26
2023-05-14T07:06:53.561Z,29.11
2023-05-14T07:07:53.516Z,29.19
2023-05-14T07:08:53.493Z,29.24
2023-05-14T07:09:53.489Z,29.40
2023-05-14T07:10:53.442Z,29.53
2023-05-14T07:11:53.434Z,29.46
2023-05-14T07:12:53.468Z,29.24
2023-05-14T07:13:53.440Z,29.01
2023-05-14T07:14:53.409Z,28.57
2023-05-14T07:15:53.463Z,28.63
2023-05-14T07:16:53.431Z,28.40
2023-05-14T07:17:53.444Z,28.42
2023-05-14T07:18:53.507Z,28.51
2023-05-14T07:19:53.347Z,28.36
2023-05-14T07:20:53.310Z,28.44
2023-05-14T07:21:53.305Z,28.69
2023-05-14T07:22:53.298Z,28.77
2023-05-14T07:23:53.288Z,28.91
2023-05-14T07:24:53.306Z,28.99
2023-05-14T07:25:53.315Z,29.07
2023-05-14T07:26:53.333Z,29.05
2023-05-14T07:27:53.230Z,29.13
2023-05-14T07:28:53.223Z,28.99
2023-05-14T07:29:53.246Z,29.26
2023-05-14T07:30:53.217Z,29.51
2023-05-14T07:31:53.249Z,29.74
2023-05-14T07:32:53.217Z,30.10
2023-05-14T07:33:53.174Z,30.73
2023-05-14T07:34:53.175Z,31.14
2023-05-14T07:35:53.194Z,31.38
2023-05-14T07:36:53.134Z,31.52
2023-05-14T07:37:53.098Z,31.59
2023-05-14T07:38:53.088Z,31.69
2023-05-14T07:39:53.072Z,31.83
2023-05-14T07:40:53.125Z,32.03
2023-05-14T07:41:53.076Z,32.45
2023-05-14T07:42:53.049Z,33.07
2023-05-14T07:43:53.032Z,33.60
2023-05-14T07:44:53.028Z,33.85
2023-05-14T07:45:53.003Z,34.33
2023-05-14T07:46:53.016Z,34.87
2023-05-14T07:47:53.091Z,35.59
2023-05-14T07:48:52.951Z,36.18
2023-05-14T07:49:52.939Z,37.51
2023-05-14T07:50:52.967Z,37.82
2023-05-14T07:51:52.926Z,37.89
2023-05-14T07:52:52.902Z,38.06
2023-05-14T07:53:52.899Z,39.66
2023-05-14T07:54:52.919Z,40.75
2023-05-14T07:55:52.868Z,42.11
2023-05-14T07:56:52.870Z,43.11
2023-05-14T07:57:52.844Z,43.38
2023-05-14T07:58:52.863Z,43.29
2023-05-14T07:59:52.823Z,42.76
2023-05-14T08:00:52.824Z,41.27
2023-05-14T08:01:52.913Z,39.58
2023-05-14T08:02:53.116Z,39.10
2023-05-14T08:03:52.863Z,39.29
2023-05-14T08:04:52.740Z,38.34
2023-05-14T08:05:52.798Z,38.63
2023-05-14T08:06:52.757Z,38.63
2023-05-14T08:07:52.722Z,38.20
2023-05-14T08:08:52.685Z,37.55
2023-05-14T08:09:52.683Z,36.85
2023-05-14T08:10:52.701Z,36.69
2023-05-14T08:11:52.686Z,36.46
2023-05-14T08:12:52.648Z,36.49
2023-05-14T08:13:52.642Z,36.46
2023-05-14T08:14:52.633Z,36.53
2023-05-14T08:15:52.607Z,36.46
2023-05-14T08:16:52.717Z,36.59
2023-05-14T08:17:52.660Z,36.69
2023-05-14T08:18:52.581Z,36.72
2023-05-14T08:19:52.553Z,37.21
2023-05-14T08:20:52.551Z,37.41
2023-05-14T08:21:52.527Z,37.55
2023-05-14T08:22:52.517Z,37.21
2023-05-14T08:23:52.494Z,36.85
2023-05-14T08:24:52.498Z,36.33
2023-05-14T08:25:52.498Z,36.53
2023-05-14T08:26:52.508Z,36.56
2023-05-14T08:27:52.468Z,36.37
2023-05-14T08:28:52.430Z,36.15
2023-05-14T08:29:52.498Z,36.08
2023-05-14T08:30:52.447Z,36.30
2023-05-14T08:31:52.414Z,37.08
2023-05-14T08:32:52.502Z,37.89
2023-05-14T08:33:52.393Z,38.56
2023-05-14T08:34:52.458Z,39.44
2023-05-14T08:35:52.359Z,39.51
2023-05-14T08:38:02.932Z,40.99
2023-05-14T08:38:52.330Z,41.60
2023-05-14T08:39:52.470Z,42.02
2023-05-14T08:40:52.296Z,42.50
2023-05-14T08:41:52.250Z,42.50
2023-05-14T08:42:52.269Z,42.76
2023-05-14T08:43:52.239Z,43.38
2023-05-14T08:44:52.240Z,44.17
2023-05-14T08:45:52.220Z,44.31
2023-05-14T08:46:52.200Z,44.07
2023-05-14T08:47:52.234Z,43.93
2023-05-14T08:48:52.214Z,43.89
2023-05-14T08:49:52.176Z,43.25
2023-05-14T08:50:52.137Z,42.58
2023-05-14T08:51:52.157Z,42.07
2023-05-14T08:52:52.142Z,41.73
2023-05-14T08:53:52.098Z,40.91
2023-05-14T08:54:52.123Z,40.47
2023-05-14T08:55:52.097Z,40.35
2023-05-14T08:56:52.094Z,40.91
2023-05-14T08:57:52.101Z,40.95
2023-05-14T08:58:52.027Z,41.35
2023-05-14T08:59:52.034Z,42.41
2023-05-14T09:00:52.004Z,43.34
2023-05-14T09:01:52.031Z,43.29
2023-05-14T09:02:52.029Z,43.47
2023-05-14T09:03:52.002Z,43.38
2023-05-14T09:04:51.996Z,43.25
2023-05-14T09:05:51.938Z,44.12
2023-05-14T09:06:51.939Z,44.78
2023-05-14T09:07:51.926Z,43.84
2023-05-14T09:08:51.901Z,44.26
2023-05-14T09:09:51.930Z,44.88
2023-05-14T09:10:51.885Z,44.59
2023-05-14T09:11:51.853Z,44.17
2023-05-14T09:12:51.853Z,43.98
2023-05-14T09:13:51.830Z,43.61
2023-05-14T09:14:51.811Z,43.29
2023-05-14T09:15:51.798Z,42.98
2023-05-14T09:16:51.878Z,42.85
2023-05-14T09:17:51.787Z,42.63
2023-05-14T09:18:51.798Z,42.50
2023-05-14T09:19:51.737Z,43.02
2023-05-14T09:20:51.755Z,42.71
2023-05-14T09:21:51.717Z,42.15
2023-05-14T09:22:51.717Z,43.79
2023-05-14T09:23:51.700Z,45.37
2023-05-14T09:24:51.669Z,47.03
2023-05-14T09:25:51.656Z,47.57
2023-05-14T09:26:51.642Z,49.06
2023-05-14T09:27:51.644Z,49.62
2023-05-14T09:28:51.642Z,49.67
2023-05-14T09:29:51.622Z,49.65
2023-05-14T09:30:51.598Z,50.22
2023-05-14T09:31:51.640Z,51.11
2023-05-14T09:32:51.587Z,51.49
2023-05-14T09:33:51.581Z,50.71
2023-05-14T09:34:51.546Z,49.35
2023-05-14T09:35:51.526Z,47.49
2023-05-14T09:36:51.526Z,47.87
2023-05-14T09:37:51.496Z,47.22
2023-05-14T09:38:51.485Z,46.80
2023-05-14T09:39:51.476Z,44.64
2023-05-14T09:40:51.487Z,42.63
2023-05-14T09:41:51.446Z,42.45
2023-05-14T09:42:51.447Z,42.32
2023-05-14T09:43:51.451Z,42.80
2023-05-14T09:44:51.438Z,42.32
2023-05-14T09:45:51.396Z,41.60
2023-05-14T09:46:51.410Z,41.98
2023-05-14T09:47:51.486Z,43.11
2023-05-14T09:48:51.337Z,44.31
2023-05-14T09:49:51.359Z,44.26
2023-05-14T09:50:51.334Z,43.75
2023-05-14T09:51:51.307Z,44.64
2023-05-14T09:52:51.301Z,45.87
2023-05-14T09:53:51.294Z,47.27
2023-05-14T09:54:51.276Z,48.21
2023-05-14T09:55:51.301Z,49.94
2023-05-14T09:56:51.248Z,50.49
2023-05-14T09:57:51.240Z,49.09
2023-05-14T09:58:51.221Z,49.12
2023-05-14T09:59:51.221Z,49.41
2023-05-14T10:00:51.204Z,49.97
2023-05-14T10:01:51.178Z,50.55
2023-05-14T10:02:51.230Z,51.94
2023-05-14T10:03:51.199Z,54.07
2023-05-14T10:04:51.247Z,54.93
2023-05-14T10:05:51.180Z,55.26
2023-05-14T10:06:51.114Z,56.65
2023-05-14T10:07:51.106Z,58.24
2023-05-14T10:08:51.077Z,59.87
2023-05-14T10:09:51.083Z,61.42
2023-05-14T10:10:51.061Z,60.26
2023-05-14T10:11:51.055Z,61.47
2023-05-14T10:12:51.041Z,62.16
2023-05-14T10:13:51.039Z,63.10
2023-05-14T10:14:51.008Z,63.05
2023-05-14T10:15:51.005Z,62.44
2023-05-14T10:16:51.048Z,63.24
2023-05-14T10:17:50.988Z,62.77
2023-05-14T10:18:50.982Z,62.20
2023-05-14T10:19:50.941Z,61.10
2023-05-14T10:20:50.945Z,58.77
2023-05-14T10:21:50.900Z,55.78
2023-05-14T10:22:50.898Z,51.84
2023-05-14T10:23:50.881Z,48.37
2023-05-14T10:24:50.897Z,45.92
2023-05-14T10:25:50.881Z,42.15
2023-05-14T10:26:50.860Z,39.25
2023-05-14T10:27:50.824Z,36.78
2023-05-14T10:28:50.831Z,34.64
2023-05-14T10:29:50.793Z,33.02
2023-05-14T10:30:50.829Z,31.59
2023-05-14T10:31:50.799Z,30.28
2023-05-14T10:32:50.785Z,29.32
2023-05-14T10:33:50.783Z,28.50
2023-05-14T10:34:50.721Z,28.03
2023-05-14T10:35:50.756Z,27.62
2023-05-14T10:36:50.701Z,27.53
2023-05-14T10:37:50.718Z,27.51
2023-05-14T10:38:50.711Z,27.62
2023-05-14T10:39:50.686Z,27.92
2023-05-14T10:40:53.566Z,28.34
2023-05-14T10:41:50.651Z,28.67
2023-05-14T10:42:50.628Z,29.19
2023-05-14T10:43:50.610Z,29.40
2023-05-14T10:44:50.602Z,29.76
2023-05-14T10:45:50.582Z,30.08
2023-05-14T10:46:50.610Z,29.80
2023-05-14T10:47:50.612Z,30.19
2023-05-14T10:48:50.560Z,30.86
2023-05-14T10:49:50.522Z,31.16
2023-05-14T10:50:50.537Z,31.69
2023-05-14T10:51:50.491Z,31.30
2023-05-14T10:52:50.490Z,30.73
2023-05-14T10:53:50.478Z,31.59
2023-05-14T10:54:50.472Z,33.18
2023-05-14T10:55:50.450Z,35.29
2023-05-14T10:56:50.424Z,38.13
2023-05-14T10:57:50.421Z,39.62
2023-05-14T10:58:50.410Z,40.28
2023-05-14T10:59:50.429Z,40.83
2023-05-14T11:00:50.401Z,40.99
2023-05-14T11:01:50.406Z,42.54
2023-05-14T11:02:50.432Z,43.11
2023-05-14T11:03:50.359Z,43.47
2023-05-14T11:04:50.328Z,43.93
2023-05-14T11:05:50.339Z,43.84
2023-05-14T11:06:50.335Z,43.79
2023-05-14T11:07:50.298Z,44.21
2023-05-14T11:08:50.301Z,43.93
2023-05-14T11:09:50.261Z,43.93
2023-05-14T11:10:50.262Z,43.43
2023-05-14T11:11:50.247Z,42.85
2023-05-14T11:12:50.218Z,42.45
2023-05-14T11:13:50.238Z,42.58
2023-05-14T11:14:50.218Z,42.45
2023-05-14T11:15:50.196Z,42.32
2023-05-14T11:16:50.294Z,42.37
2023-05-14T11:17:50.180Z,42.02
2023-05-14T11:18:50.191Z,42.07
2023-05-14T11:19:51.246Z,42.67
2023-05-14T11:20:50.150Z,43.20
2023-05-14T11:21:50.179Z,43.56
2023-05-14T11:22:50.108Z,43.75
2023-05-14T11:23:50.090Z,44.78
2023-05-14T11:24:50.067Z,45.82
2023-05-14T11:25:50.143Z,46.17
2023-05-14T11:26:50.078Z,47.35
2023-05-14T11:27:50.057Z,48.09
2023-05-14T11:28:50.005Z,49.26
2023-05-14T11:29:50.005Z,52.70
2023-05-14T11:30:49.980Z,54.10
2023-05-14T11:31:50.128Z,53.76
2023-05-14T11:32:50.115Z,51.46
2023-05-14T11:33:49.939Z,50.77
2023-05-14T11:34:49.935Z,51.55
2023-05-14T11:35:49.925Z,50.06
2023-05-14T11:36:49.905Z,51.43
2023-05-14T11:37:49.881Z,51.88
2023-05-14T11:38:49.904Z,52.53
2023-05-14T11:39:49.875Z,53.44
2023-05-14T11:40:49.861Z,55.26
2023-05-14T11:41:49.849Z,55.22
2023-05-14T11:42:49.834Z,55.81
2023-05-14T11:43:49.843Z,55.44
2023-05-14T11:44:49.795Z,55.92
2023-05-14T11:45:49.783Z,58.11
2023-05-14T11:46:49.779Z,62.20
2023-05-14T11:47:49.773Z,64.57
2023-05-14T11:48:49.727Z,67.34
2023-05-14T11:49:49.771Z,70.66
2023-05-14T11:50:49.719Z,73.02
2023-05-14T11:51:49.706Z,73.67
2023-05-14T11:52:49.716Z,75.20
2023-05-14T11:53:49.661Z,76.94
2023-05-14T11:54:49.675Z,78.10
2023-05-14T11:55:49.643Z,78.99
2023-05-14T11:56:49.647Z,79.44
2023-05-14T11:57:49.609Z,78.84
2023-05-14T11:58:49.595Z,76.52
2023-05-14T11:59:49.561Z,71.76
2023-05-14T12:00:49.560Z,65.85
2023-05-14T12:01:50.693Z,62.20
2023-05-14T12:02:49.654Z,63.73
2023-05-14T12:03:49.701Z,66.27
2023-05-14T12:04:49.649Z,68.06
2023-05-14T12:05:49.505Z,72.83
2023-05-14T12:06:49.479Z,78.99
2023-05-14T12:07:49.487Z,76.94
2023-05-14T12:08:49.479Z,79.29
2023-05-14T12:09:49.668Z,85.22
2023-05-14T12:10:49.427Z,86.83
2023-05-14T12:11:49.481Z,87.10
2023-05-14T12:12:49.473Z,88.11
2023-05-14T12:13:49.470Z,92.22
2023-05-14T12:14:49.404Z,94.42
2023-05-14T12:15:49.400Z,94.74
2023-05-14T12:16:49.366Z,95.29
2023-05-14T12:17:49.455Z,95.62
2023-05-14T12:18:49.518Z,94.10
2023-05-14T12:19:49.337Z,97.00
2023-05-14T12:20:49.304Z,97.97
2023-05-14T12:21:49.289Z,96.26
2023-05-14T12:22:49.315Z,99.25
2023-05-14T12:23:49.256Z,96.43
2023-05-14T12:24:49.326Z,93.99
2023-05-14T12:25:49.226Z,93.78
2023-05-14T12:26:49.230Z,94.31
2023-05-14T12:27:49.247Z,88.21
2023-05-14T12:28:49.212Z,83.35
2023-05-14T12:29:49.213Z,81.15
2023-05-14T12:30:49.192Z,82.76
2023-05-14T12:31:49.360Z,81.95
2023-05-14T12:32:49.233Z,78.69
2023-05-14T12:33:49.140Z,82.52
2023-05-14T12:34:49.111Z,86.47
2023-05-14T12:35:49.105Z,91.31
2023-05-14T12:36:49.088Z,88.87
2023-05-14T12:37:49.081Z,89.35
2023-05-14T12:38:49.074Z,93.36
2023-05-14T12:39:49.069Z,96.04
2023-05-14T12:40:49.047Z,96.54
2023-05-14T12:41:49.023Z,100.70
2023-05-14T12:42:49.109Z,99.02
2023-05-14T12:43:49.046Z,94.31
2023-05-14T12:44:49.002Z,90.32
2023-05-14T12:45:48.964Z,94.42
2023-05-14T12:46:49.026Z,95.95
2023-05-14T12:47:48.972Z,94.62
2023-05-14T12:48:50.118Z,90.91
2023-05-14T12:49:48.924Z,83.35
2023-05-14T12:50:48.908Z,80.29
2023-05-14T12:51:51.195Z,86.47
2023-05-14T12:52:48.881Z,94.64
2023-05-14T12:53:48.878Z,99.91